Terminal Aerodrome Forecast
Issued by NWS

Home | Current Version | Previous Version | Text Only | Print | Product List | Glossary On
Versions: 1 2 3 4 5 6 7 8 9 10 11 12 13 14 15 16 17 18 19 20 21 22 23 24 25 26 27 28 29 30 31
725
FTUS46 KLOX 312053 AAA
TAFSBP
TAF AMD
KSBP 312053Z 3121/0118 27006KT P6SM SKC WS007/34025KT
     FM010300 VRB05KT P6SM BKN006
     FM011100 VRB05KT 1SM BR OVC002=

USA.gov is the U.S. government's official web portal to all federal, state and local government web resources and services.